Time;durP1;ratioP1;P1;durP2;ratioP2;P2;SDS_P1;SDS_P2;PMS_P1;PMS_P2;Temp;Humidity;BMP_temperature;BMP_pressure;BME280_temperature;BME280_humidity;BME280_pressure;Samples;Min_cycle;Max_cycle;Signal;HPM_P1;HPM_P2
2024/02/09 00:00:17;;;;;;;5.30;4.80;;;;;;;;;;4992946;28;20213;-60
2024/02/09 00:02:45;;;;;;;6.40;5.10;;;8.00;99.90;;;;;;4972982;28;20234;-60
2024/02/09 00:05:13;;;;;;;6.90;4.37;;;8.20;99.90;;;;;;4973573;28;20285;-60
2024/02/09 00:07:41;;;;;;;8.07;4.73;;;;;;;;;;4973656;28;20418;-60
2024/02/09 00:10:12;;;;;;;5.30;4.80;;;;;;;;;;4973632;28;20225;-60
2024/02/09 00:12:40;;;;;;;7.03;4.43;;;;;;;;;;5010453;28;20251;-60
2024/02/09 00:15:07;;;;;;;5.50;4.67;;;;;;;;;;5012205;28;20253;-60
2024/02/09 00:17:36;;;;;;;9.77;5.23;;;;;;;;;;5012227;28;20627;-60
2024/02/09 00:20:07;;;;;;;6.93;5.00;;;;;;;;;;5012283;28;20212;-60
2024/02/09 00:22:35;;;;;;;5.77;4.77;;;;;;;;;;5010058;28;20670;-60
2024/02/09 00:25:04;;;;;;;5.83;4.77;;;;;;;;;;5012233;28;21939;-60
2024/02/09 00:27:31;;;;;;;5.47;4.97;;;8.10;99.90;;;;;;5012123;28;20256;-60
2024/02/09 00:29:58;;;;;;;8.10;5.87;;;8.20;99.90;;;;;;5011276;28;20282;-60
2024/02/09 00:32:26;;;;;;;8.60;5.60;;;8.20;99.90;;;;;;5011466;28;20273;-60
2024/02/09 00:34:55;;;;;;;5.43;5.03;;;8.20;99.90;;;;;;5012476;28;20575;-60
2024/02/09 00:37:23;;;;;;;6.40;5.43;;;8.10;99.90;;;;;;5012111;28;20205;-60
2024/02/09 00:39:50;;;;;;;6.67;5.97;;;8.00;99.90;;;;;;5011218;28;20736;-60
2024/02/09 00:42:18;;;;;;;8.13;7.07;;;8.10;99.90;;;;;;5012080;28;20641;-59
2024/02/09 00:44:45;;;;;;;5.73;5.03;;;7.80;99.90;;;;;;5012232;28;20200;-60
2024/02/09 00:47:12;;;;;;;8.17;5.53;;;8.30;99.90;;;;;;5012209;28;20236;-60
2024/02/09 00:49:41;;;;;;;5.77;4.97;;;7.80;99.90;;;;;;5011361;28;20236;-60
2024/02/09 00:52:10;;;;;;;5.50;5.00;;;7.80;99.90;;;;;;5011948;28;20268;-60
2024/02/09 00:54:38;;;;;;;8.23;6.37;;;7.70;99.90;;;;;;5011194;28;20204;-60
2024/02/09 00:57:05;;;;;;;6.77;5.70;;;7.80;99.90;;;;;;5011730;28;20233;-60
2024/02/09 00:59:33;;;;;;;5.90;5.30;;;7.80;99.90;;;;;;5011222;28;20222;-60
2024/02/09 01:02:01;;;;;;;5.10;4.43;;;7.80;99.90;;;;;;5011949;28;20197;-60
2024/02/09 01:04:28;;;;;;;6.37;4.50;;;7.80;99.90;;;;;;5010986;28;20241;-60
2024/02/09 01:06:56;;;;;;;5.00;4.07;;;7.70;99.90;;;;;;5011563;28;20648;-60
2024/02/09 01:09:25;;;;;;;7.40;4.77;;;;;;;;;;5011233;28;20272;-60
2024/02/09 01:11:52;;;;;;;6.37;3.87;;;;;;;;;;5012102;28;20283;-60
2024/02/09 02:44:46;;;;;;;1.03;0.57;;;;;;;;;;5012886;28;20239;-60
2024/02/09 02:47:16;;;;;;;4.63;0.80;;;;;;;;;;5014024;28;20209;-60
2024/02/09 03:06:14;;;;;;;1.10;0.93;;;;;;;;;;5013755;28;20587;-60
2024/02/09 03:08:41;;;;;;;1.83;1.73;;;;;;;;;;5013163;28;20209;-60
2024/02/09 03:11:10;;;;;;;3.67;1.67;;;;;;;;;;5013653;28;20229;-60
2024/02/09 03:13:37;;;;;;;4.87;2.13;;;;;;;;;;5012767;28;20331;-60
2024/02/09 03:16:05;;;;;;;3.83;2.03;;;;;;;;;;5013320;28;20720;-60
2024/02/09 03:18:34;;;;;;;3.23;2.43;;;;;;;;;;5012524;28;20206;-60
2024/02/09 03:21:01;;;;;;;6.67;1.93;;;;;;;;;;5012322;28;20197;-60
2024/02/09 03:23:28;;;;;;;3.03;1.87;;;;;;;;;;5012760;28;20204;-60
2024/02/09 03:25:55;;;;;;;3.97;1.60;;;;;;;;;;5013408;28;20610;-60
2024/02/09 03:28:22;;;;;;;4.90;2.37;;;;;;;;;;5013313;28;20249;-60
2024/02/09 03:30:50;;;;;;;3.77;2.37;;;;;;;;;;5012241;28;20748;-60
2024/02/09 03:33:17;;;;;;;4.17;3.23;;;;;;;;;;5012725;28;20206;-60
2024/02/09 03:35:45;;;;;;;6.40;2.87;;;;;;;;;;5013368;28;20221;-60
2024/02/09 03:38:13;;;;;;;8.83;3.00;;;;;;;;;;5013229;28;20208;-60
2024/02/09 03:40:41;;;;;;;3.80;2.67;;;;;;;;;;5012293;28;20212;-60
2024/02/09 03:43:09;;;;;;;3.67;3.37;;;;;;;;;;5010089;28;20612;-60
2024/02/09 03:45:37;;;;;;;6.13;4.30;;;;;;;;;;5012966;28;20231;-60
2024/02/09 03:48:05;;;;;;;6.30;4.67;;;8.10;99.90;;;;;;5010142;28;20201;-60
2024/02/09 03:50:34;;;;;;;5.97;5.37;;;;;;;;;;5013154;28;20252;-60
2024/02/09 03:53:02;;;;;;;5.63;4.90;;;8.00;99.90;;;;;;5012286;28;20801;-60
2024/02/09 03:55:30;;;;;;;7.93;7.07;;;;;;;;;;5013050;28;20676;-60
2024/02/09 03:57:57;;;;;;;7.40;6.67;;;;;;;;;;5012834;28;20264;-60
2024/02/09 04:00:24;;;;;;;7.97;7.13;;;;;;;;;;5013007;28;20352;-60
2024/02/09 04:02:51;;;;;;;7.23;6.53;;;;;;;;;;5012073;28;20205;-60
2024/02/09 04:05:19;;;;;;;8.93;7.17;;;;;;;;;;5002454;28;20223;-60
2024/02/09 04:07:46;;;;;;;9.40;8.43;;;;;;;;;;5012764;28;20208;-60
2024/02/09 04:10:14;;;;;;;11.80;9.13;;;;;;;;;;5012594;28;20205;-60
2024/02/09 04:12:42;;;;;;;13.07;10.73;;;;;;;;;;5011460;28;20275;-60
2024/02/09 04:15:11;;;;;;;13.27;9.70;;;;;;;;;;5011393;28;20737;-60
2024/02/09 04:17:38;;;;;;;12.93;10.70;;;;;;;;;;5012697;28;20212;-60
2024/02/09 04:20:08;;;;;;;15.53;10.30;;;;;;;;;;5012486;28;20205;-60
2024/02/09 04:22:36;;;;;;;13.57;10.63;;;;;;;;;;5011572;28;20206;-60
2024/02/09 04:25:03;;;;;;;9.43;8.37;;;;;;;;;;5011373;28;20296;-60
2024/02/09 04:27:32;;;;;;;7.30;6.57;;;;;;;;;;5012446;28;20252;-60
2024/02/09 04:29:59;;;;;;;8.77;6.43;;;;;;;;;;5012231;28;20205;-60
2024/02/09 04:32:26;;;;;;;6.57;5.83;;;7.70;99.90;;;;;;5011307;28;20644;-60
2024/02/09 04:34:53;;;;;;;8.60;7.10;;;;;;;;;;5011056;28;20696;-60
2024/02/09 04:37:23;;;;;;;6.43;5.87;;;7.80;99.90;;;;;;5012003;28;20209;-60
2024/02/09 04:39:50;;;;;;;5.20;4.70;;;7.70;99.90;;;;;;5012189;28;20747;-60
2024/02/09 04:42:18;;;;;;;8.87;5.53;;;;;;;;;;5012019;28;20750;-60
2024/02/09 04:44:46;;;;;;;6.33;4.37;;;7.60;99.90;;;;;;5011255;28;20205;-60
2024/02/09 04:47:15;;;;;;;6.07;5.23;;;7.60;99.90;;;;;;5011914;28;20836;-59
2024/02/09 04:49:44;;;;;;;5.13;4.60;;;7.70;99.90;;;;;;5012093;28;20212;-60
2024/02/09 04:52:13;;;;;;;4.83;4.33;;;7.60;99.90;;;;;;5011934;28;20718;-60
2024/02/09 04:54:40;;;;;;;7.57;4.80;;;7.60;99.90;;;;;;5010044;28;20307;-60
2024/02/09 04:57:08;;;;;;;8.00;5.13;;;;;;;;;;5011939;28;20660;-60
2024/02/09 04:59:36;;;;;;;5.20;4.80;;;;;;;;;;5011975;28;20236;-59
2024/02/09 05:02:04;;;;;;;7.47;4.17;;;;;;;;;;5012049;28;20255;-60
2024/02/09 05:04:31;;;;;;;8.10;5.00;;;;;;;;;;5010236;28;20193;-59
2024/02/09 05:06:59;;;;;;;4.67;4.27;;;;;;;;;;5011803;28;20647;-60
2024/02/09 05:09:29;;;;;;;5.80;4.40;;;;;;;;;;5015494;28;20204;-60
2024/02/09 05:11:58;;;;;;;5.50;4.33;;;;;;;;;;5015880;28;20279;-60
2024/02/09 05:14:25;;;;;;;6.03;4.63;;;;;;;;;;5013967;28;20660;-60
2024/02/09 05:16:53;;;;;;;9.60;4.53;;;;;;;;;;5015849;28;20229;-60
2024/02/09 05:19:22;;;;;;;4.33;3.93;;;;;;;;;;5016035;28;20205;-60
2024/02/09 05:21:49;;;;;;;4.43;3.30;;;;;;;;;;5015973;28;20205;-60
2024/02/09 05:24:18;;;;;;;7.20;4.40;;;7.40;99.90;;;;;;5013907;28;20252;-60
2024/02/09 05:26:45;;;;;;;5.63;3.87;;;7.50;99.90;;;;;;5015672;28;20232;-60
2024/02/09 05:29:12;;;;;;;5.37;3.77;;;7.60;99.90;;;;;;5015393;28;20622;-60
2024/02/09 05:31:41;;;;;;;4.83;4.00;;;7.60;99.90;;;;;;5015389;28;20208;-60
2024/02/09 05:34:08;;;;;;;4.40;3.90;;;7.50;99.90;;;;;;5014081;28;20201;-60
2024/02/09 05:36:37;;;;;;;4.10;3.70;;;7.60;99.90;;;;;;5015295;28;20279;-60
2024/02/09 05:39:04;;;;;;;3.63;3.33;;;;;;;;;;5015410;28;20209;-60
2024/02/09 05:41:31;;;;;;;5.50;4.30;;;7.50;99.90;;;;;;5015387;28;20682;-60
2024/02/09 05:43:58;;;;;;;4.67;3.50;;;;;;;;;;5013632;28;20258;-60
2024/02/09 05:46:26;;;;;;;4.73;4.40;;;7.60;99.90;;;;;;4976360;28;20222;-60
2024/02/09 05:48:54;;;;;;;4.13;3.33;;;;;;;;;;4973995;28;20244;-60
2024/02/09 05:51:23;;;;;;;4.33;3.90;;;7.60;99.90;;;;;;4976125;28;20213;-60
2024/02/09 05:53:51;;;;;;;3.80;3.23;;;;;;;;;;4973126;28;20230;-60
2024/02/09 05:56:19;;;;;;;7.03;3.47;;;7.60;99.90;;;;;;5012941;28;20227;-60
2024/02/09 05:58:46;;;;;;;6.93;3.80;;;7.60;99.90;;;;;;5015029;28;20247;-60
2024/02/09 06:01:14;;;;;;;7.00;3.50;;;7.70;99.90;;;;;;5015765;28;20205;-60
2024/02/09 06:03:42;;;;;;;4.97;3.47;;;;;;;;;;5014243;28;20240;-60
2024/02/09 06:06:12;;;;;;;5.63;4.00;;;;;;;;;;5014440;28;20720;-60
2024/02/09 06:08:39;;;;;;;7.70;4.13;;;;;;;;;;5015522;28;20201;-62
2024/02/09 06:11:08;;;;;;;6.83;6.20;;;;;;;;;;5015317;28;20254;-60
2024/02/09 06:13:35;;;;;;;6.90;4.33;;;;;;;;;;5014080;28;20221;-60
2024/02/09 06:16:02;;;;;;;4.73;4.07;;;7.50;99.90;;;;;;5019113;28;20221;-60
2024/02/09 06:18:29;;;;;;;4.73;4.17;;;7.60;99.90;;;;;;5015447;28;20747;-60
2024/02/09 06:21:00;;;;;;;5.43;5.03;;;7.50;99.90;;;;;;5014596;28;20251;-60
2024/02/09 06:23:27;;;;;;;7.97;4.83;;;7.50;99.90;;;;;;5013807;28;20201;-59
2024/02/09 06:25:55;;;;;;;9.03;5.70;;;7.60;99.90;;;;;;5014638;28;20224;-60
2024/02/09 06:28:23;;;;;;;5.40;4.93;;;;;;;;;;5014530;28;20210;-60
2024/02/09 06:30:50;;;;;;;5.17;4.67;;;;;;;;;;5014529;28;20271;-60
2024/02/09 06:33:19;;;;;;;8.73;4.60;;;;;;;;;;5015946;28;20221;-59
2024/02/09 06:35:46;;;;;;;6.17;5.43;;;;;;;;;;5014690;28;20226;-60
2024/02/09 06:38:13;;;;;;;6.90;4.00;;;;;;;;;;5007896;28;20204;-60
2024/02/09 06:40:41;;;;;;;5.53;5.00;;;;;;;;;;5014530;28;20278;-60
2024/02/09 06:43:08;;;;;;;4.90;4.50;;;7.50;99.90;;;;;;5013276;28;20202;-60
2024/02/09 06:45:36;;;;;;;3.90;3.63;;;7.50;99.90;;;;;;5014155;28;20491;-60
2024/02/09 06:48:05;;;;;;;5.33;3.97;;;7.50;99.90;;;;;;5014002;28;20681;-60
2024/02/09 06:50:34;;;;;;;4.43;3.80;;;7.50;99.90;;;;;;5009324;28;20195;-60
2024/02/09 06:53:01;;;;;;;3.70;3.40;;;;;;;;;;4993858;28;20659;-60
2024/02/09 06:55:28;;;;;;;3.20;3.00;;;;;;;;;;4975660;28;20344;-60
2024/02/09 06:57:56;;;;;;;4.13;3.40;;;;;;;;;;4994406;28;20205;-60
2024/02/09 07:00:25;;;;;;;4.83;2.73;;;7.50;99.90;;;;;;4994394;28;20237;-59
2024/02/09 07:02:55;;;;;;;3.57;2.57;;;7.50;99.90;;;;;;4993796;28;20238;-60
2024/02/09 07:05:22;;;;;;;8.77;4.53;;;7.50;99.90;;;;;;5000761;28;20297;-60
2024/02/09 07:07:50;;;;;;;5.83;3.73;;;7.60;99.90;;;;;;5013784;28;20205;-60
2024/02/09 07:10:18;;;;;;;4.17;3.77;;;7.70;99.90;;;;;;5013957;28;20624;-60
2024/02/09 07:12:45;;;;;;;11.23;8.47;;;;;;;;;;5013045;28;20229;-60
2024/02/09 07:15:14;;;;;;;8.67;5.87;;;;;;;;;;5013532;28;20295;-62
2024/02/09 07:17:41;;;;;;;6.77;4.87;;;7.80;99.90;;;;;;5013467;28;20205;-60
2024/02/09 07:20:12;;;;;;;2.77;2.67;;;;;;;;;;5013394;28;20203;-60
2024/02/09 07:22:39;;;;;;;2.83;2.47;;;7.80;99.90;;;;;;5001834;28;20244;-60
2024/02/09 07:25:07;;;;;;;4.83;2.40;;;7.90;99.90;;;;;;4993803;28;20726;-60
2024/02/09 07:27:34;;;;;;;2.20;2.10;;;;;;;;;;4993708;28;20208;-60
2024/02/09 07:30:01;;;;;;;3.47;2.30;;;8.00;99.90;;;;;;4994031;28;20264;-61
2024/02/09 07:32:28;;;;;;;6.37;2.73;;;;;;;;;;4992699;28;20263;-60
2024/02/09 07:34:55;;;;;;;2.67;2.47;;;;;;;;;;4993094;28;20204;-60
2024/02/09 07:37:28;;;;;;;2.47;2.27;;;;;;;;;;5006279;28;20199;-60
2024/02/09 07:39:55;;;;;;;1.80;1.70;;;;;;;;;;5013244;28;20275;-60
2024/02/09 07:42:24;;;;;;;2.23;2.13;;;8.30;99.90;;;;;;5012269;28;20198;-60
2024/02/09 07:44:51;;;;;;;3.17;2.33;;;8.50;99.90;;;;;;5019675;28;20209;-60
2024/02/09 07:47:20;;;;;;;2.63;2.40;;;;;;;;;;5030034;28;20205;-60
2024/02/09 07:49:47;;;;;;;3.83;2.07;;;;;;;;;;5026541;28;20209;-60
2024/02/09 07:52:14;;;;;;;4.30;1.80;;;;;;;;;;5011948;28;20633;-59
2024/02/09 07:54:43;;;;;;;3.70;2.87;;;;;;;;;;5009854;28;20693;-60
2024/02/09 07:57:12;;;;;;;4.30;2.03;;;;;;;;;;5012920;28;20209;-60
2024/02/09 07:59:40;;;;;;;6.10;2.77;;;;;;;;;;5010693;28;20210;-60
2024/02/09 08:02:07;;;;;;;3.43;2.60;;;;;;;;;;5013050;28;20203;-60
2024/02/09 08:04:36;;;;;;;4.13;3.07;;;;;;;;;;5012096;28;20275;-60
2024/02/09 08:07:08;;;;;;;5.37;2.97;;;;;;;;;;5012574;28;20231;-60
2024/02/09 08:09:36;;;;;;;9.00;5.10;;;9.60;99.90;;;;;;5005906;28;20694;-60
2024/02/09 08:12:04;;;;;;;5.13;4.63;;;9.80;99.90;;;;;;4992976;28;20205;-60
2024/02/09 08:14:36;;;;;;;4.53;2.70;;;10.00;99.90;;;;;;4992362;28;20231;-60
2024/02/09 08:17:04;;;;;;;5.00;1.83;;;10.20;99.90;;;;;;4993031;28;20312;-61
2024/02/09 08:19:32;;;;;;;4.07;1.90;;;10.40;99.90;;;;;;4993075;28;20203;-62
2024/02/09 08:21:59;;;;;;;3.27;2.03;;;10.50;99.90;;;;;;4992821;28;20215;-60
2024/02/09 08:24:26;;;;;;;1.40;1.30;;;10.50;99.90;;;;;;4991900;28;20252;-60
2024/02/09 08:26:53;;;;;;;1.67;1.57;;;10.60;99.90;;;;;;4992070;28;20281;-60
2024/02/09 08:29:22;;;;;;;5.67;3.13;;;10.50;99.90;;;;;;5004958;28;20205;-60
2024/02/09 08:31:49;;;;;;;1.77;1.67;;;10.60;99.90;;;;;;5012135;28;20209;-58
2024/02/09 08:34:16;;;;;;;2.93;2.63;;;10.40;99.90;;;;;;5011036;28;20267;-58
2024/02/09 08:36:43;;;;;;;2.50;1.43;;;10.40;99.90;;;;;;5012203;28;20223;-63
2024/02/09 08:39:10;;;;;;;1.67;1.50;;;10.50;99.90;;;;;;5011795;28;20591;-61
2024/02/09 08:41:37;;;;;;;3.40;1.57;;;10.40;99.90;;;;;;5011955;28;20253;-62
2024/02/09 08:44:04;;;;;;;3.67;1.97;;;10.40;99.90;;;;;;5010020;28;20253;-63
2024/02/09 08:46:32;;;;;;;1.70;1.07;;;10.40;99.90;;;;;;5012208;28;20229;-64
2024/02/09 08:48:59;;;;;;;1.40;1.30;;;10.40;99.90;;;;;;5012330;28;20203;-64
2024/02/09 08:51:26;;;;;;;1.83;1.73;;;10.30;99.90;;;;;;5011910;28;20213;-63
2024/02/09 08:53:53;;;;;;;1.30;1.20;;;9.90;99.90;;;;;;5011084;28;20219;-63
2024/02/09 08:56:20;;;;;;;3.10;1.20;;;10.30;99.90;;;;;;5011963;28;20317;-63
2024/02/09 08:58:47;;;;;;;1.90;1.60;;;10.40;99.90;;;;;;5011887;28;20264;-62
2024/02/09 09:01:14;;;;;;;2.77;1.70;;;;;;;;;;5011551;28;20205;-63
2024/02/09 09:03:44;;;;;;;2.43;1.23;;;;;;;;;;5011404;28;20629;-59
2024/02/09 09:06:12;;;;;;;2.67;1.30;;;;;;;;;;5012375;28;20223;-59
2024/02/09 09:08:39;;;;;;;1.90;1.10;;;;;;;;;;5011761;28;20590;-59
2024/02/09 09:11:06;;;;;;;6.90;1.63;;;;;;;;;;5011910;28;20217;-57
2024/02/09 09:13:34;;;;;;;1.27;1.13;;;;;;;;;;5011190;28;20227;-59
2024/02/09 09:16:00;;;;;;;4.70;1.40;;;10.60;99.90;;;;;;5004837;28;20226;-59
2024/02/09 09:18:28;;;;;;;1.23;1.20;;;10.90;99.90;;;;;;4992032;28;20258;-57
2024/02/09 09:20:56;;;;;;;1.50;1.40;;;10.70;99.90;;;;;;4992035;28;20206;-56
2024/02/09 09:23:23;;;;;;;1.63;1.53;;;10.90;99.90;;;;;;4991394;28;20678;-57
2024/02/09 09:25:50;;;;;;;4.63;1.30;;;10.40;99.90;;;;;;4992210;28;20232;-55
2024/02/09 09:28:18;;;;;;;1.83;1.23;;;10.60;99.90;;;;;;4992255;28;20203;-60
2024/02/09 09:30:45;;;;;;;1.77;1.33;;;10.70;99.90;;;;;;4991924;28;20211;-59
2024/02/09 09:33:12;;;;;;;4.33;1.70;;;10.70;99.90;;;;;;4998836;28;20579;-64
2024/02/09 09:35:40;;;;;;;1.50;1.40;;;10.80;99.90;;;;;;5010862;28;20635;-64
2024/02/09 09:38:10;;;;;;;3.87;1.77;;;10.80;99.90;;;;;;5011955;28;20237;-60
2024/02/09 09:40:40;;;;;;;2.77;2.17;;;10.80;99.90;;;;;;5011768;28;20217;-58
2024/02/09 09:43:08;;;;;;;3.70;1.70;;;10.90;99.90;;;;;;5012667;28;20241;-59
2024/02/09 09:45:35;;;;;;;3.27;1.40;;;;;;;;;;5011458;28;20229;-58
2024/02/09 09:48:06;;;;;;;1.27;1.17;;;11.00;99.90;;;;;;5011522;28;20295;-65
2024/02/09 09:50:35;;;;;;;1.77;1.30;;;11.10;99.90;;;;;;5000702;28;20237;-67
2024/02/09 09:53:03;;;;;;;2.03;1.43;;;;;;;;;;4991397;28;20213;-64
2024/02/09 09:55:34;;;;;;;3.00;1.50;;;;;;;;;;4995475;28;20685;-62
2024/02/09 09:58:01;;;;;;;1.10;1.00;;;;;;;;;;4994754;28;20221;-64
2024/02/09 10:00:28;;;;;;;1.30;1.30;;;;;;;;;;4998219;28;20266;-64
2024/02/09 10:02:56;;;;;;;2.73;1.23;;;;;;;;;;4992781;28;20210;-65
2024/02/09 10:05:24;;;;;;;1.90;1.80;;;;;;;;;;4995645;28;20715;-66
2024/02/09 10:07:51;;;;;;;2.00;1.60;;;;;;;;;;5014767;28;20198;-66
2024/02/09 10:10:19;;;;;;;2.67;1.60;;;;;;;;;;5014929;28;20264;-65
2024/02/09 10:12:47;;;;;;;1.83;1.43;;;;;;;;;;5013847;28;20627;-63
2024/02/09 10:15:16;;;;;;;2.10;0.97;;;;;;;;;;5014618;28;20657;-66
2024/02/09 10:17:43;;;;;;;3.13;1.40;;;;;;;;;;5018696;28;20237;-67
2024/02/09 10:20:11;;;;;;;2.80;1.40;;;;;;;;;;5014598;28;20214;-64
2024/02/09 10:22:38;;;;;;;3.33;1.90;;;;;;;;;;5010992;28;20233;-64
2024/02/09 10:25:06;;;;;;;2.60;2.40;;;;;;;;;;4994899;28;20226;-62
2024/02/09 10:27:34;;;;;;;3.03;1.53;;;;;;;;;;4994788;28;20214;-60
2024/02/09 10:30:03;;;;;;;1.77;1.67;;;;;;;;;;4994847;28;20292;-62
2024/02/09 10:32:32;;;;;;;2.80;1.40;;;;;;;;;;4993951;28;20618;-62
2024/02/09 10:35:00;;;;;;;1.73;1.30;;;;;;;;;;4994448;28;20224;-62
2024/02/09 10:37:28;;;;;;;2.50;1.13;;;;;;;;;;4994667;28;20642;-61
2024/02/09 10:39:55;;;;;;;3.57;3.43;;;;;;;;;;4995349;28;20234;-61
2024/02/09 10:42:23;;;;;;;2.60;1.70;;;12.80;99.90;;;;;;4994152;28;20200;-61
2024/02/09 10:44:52;;;;;;;1.73;1.63;;;13.10;99.90;;;;;;4994617;28;20213;-61
2024/02/09 10:47:25;;;;;;;1.00;1.00;;;;;;;;;;4994391;28;20204;-61
2024/02/09 10:49:53;;;;;;;2.23;1.73;;;;;;;;;;4993515;28;20242;-62
2024/02/09 10:52:25;;;;;;;1.33;1.23;;;13.70;99.90;;;;;;4994033;28;20265;-61
2024/02/09 10:54:56;;;;;;;2.30;1.50;;;;;;;;;;4994200;28;20230;-65
2024/02/09 10:57:28;;;;;;;1.67;1.57;;;;;;;;;;4995247;28;20210;-64
2024/02/09 10:59:57;;;;;;;1.00;0.97;;;;;;;;;;4994234;28;20214;-63
2024/02/09 11:02:29;;;;;;;4.23;1.53;;;;;;;;;;4993644;28;20209;-63
2024/02/09 11:04:56;;;;;;;3.27;1.47;;;;;;;;;;4991947;28;20258;-61
2024/02/09 11:07:24;;;;;;;1.47;1.30;;;;;;;;;;4991869;28;20269;-61
2024/02/09 11:09:51;;;;;;;4.50;2.27;;;;;;;;;;4992344;28;20206;-61
2024/02/09 11:12:19;;;;;;;2.90;2.00;;;;;;;;;;4991981;28;20207;-61
2024/02/09 11:14:46;;;;;;;3.90;2.23;;;;;;;;;;5003618;28;20269;-61
2024/02/09 11:17:18;;;;;;;8.07;2.80;;;;;;;;;;5010599;28;20263;-61
2024/02/09 11:19:48;;;;;;;3.33;1.97;;;;;;;;;;5013096;28;20213;-61
2024/02/09 11:22:17;;;;;;;4.17;2.27;;;;;;;;;;5013605;28;20201;-61
2024/02/09 11:24:47;;;;;;;3.40;2.40;;;;;;;;;;5012882;28;20234;-61
2024/02/09 11:27:14;;;;;;;4.70;2.47;;;;;;;;;;5013390;28;20206;-61
2024/02/09 11:29:41;;;;;;;3.07;2.87;;;;;;;;;;5012436;28;20208;-62
2024/02/09 11:32:08;;;;;;;3.30;3.00;;;;;;;;;;5013269;28;20253;-61
2024/02/09 11:34:37;;;;;;;6.03;3.20;;;;;;;;;;5012457;28;20649;-62
2024/02/09 11:37:05;;;;;;;4.40;4.00;;;;;;;;;;5013226;28;20269;-61
2024/02/09 11:39:33;;;;;;;3.47;3.20;;;;;;;;;;5013236;28;20281;-61
2024/02/09 11:42:01;;;;;;;2.50;2.40;;;;;;;;;;5013067;28;20640;-62
2024/02/09 11:44:29;;;;;;;3.43;3.20;;;;;;;;;;5012218;28;20292;-61
2024/02/09 11:46:57;;;;;;;4.70;2.87;;;;;;;;;;5004800;28;20234;-62
2024/02/09 11:49:26;;;;;;;2.67;2.53;;;;;;;;;;4993438;28;20200;-61
2024/02/09 11:52:01;;;;;;;2.90;2.60;;;;;;;;;;4993715;28;20218;-61
2024/02/09 11:54:30;;;;;;;4.50;4.10;;;;;;;;;;4992345;28;20316;-61
2024/02/09 11:56:58;;;;;;;3.37;3.13;;;;;;;;;;4992872;28;20282;-61
2024/02/09 11:59:26;;;;;;;2.97;2.77;;;;;;;;;;4993152;28;20246;-61
2024/02/09 12:01:54;;;;;;;3.20;2.90;;;;;;;;;;4993554;28;20235;-60
2024/02/09 12:04:21;;;;;;;3.40;3.07;;;;;;;;;;4991102;28;20200;-61
2024/02/09 12:06:48;;;;;;;4.87;2.07;;;;;;;;;;4993099;28;20249;-60
2024/02/09 12:09:16;;;;;;;1.60;1.50;;;;;;;;;;4990889;28;20234;-61
2024/02/09 12:11:46;;;;;;;2.47;2.27;;;;;;;;;;4992840;28;20296;-61
2024/02/09 12:14:14;;;;;;;2.27;1.60;;;;;;;;;;4992259;28;20268;-61
2024/02/09 12:16:41;;;;;;;1.97;1.77;;;;;;;;;;4993887;28;20227;-61
2024/02/09 12:19:08;;;;;;;1.63;1.53;;;;;;;;;;4992714;28;20888;-61
2024/02/09 12:21:35;;;;;;;3.07;1.30;;;;;;;;;;4993791;28;20655;-61
2024/02/09 12:24:03;;;;;;;2.40;1.77;;;;;;;;;;4991942;28;20261;-61
2024/02/09 12:26:30;;;;;;;1.73;1.63;;;;;;;;;;4992921;28;20220;-61
2024/02/09 12:28:59;;;;;;;1.70;1.60;;;;;;;;;;4992760;28;20606;-61
2024/02/09 12:31:26;;;;;;;1.80;1.70;;;;;;;;;;4992524;28;20698;-61
2024/02/09 12:33:54;;;;;;;5.60;2.40;;;;;;;;;;4991435;28;20259;-61
2024/02/09 12:36:22;;;;;;;2.40;2.20;;;;;;;;;;4992557;28;20226;-61
2024/02/09 12:38:55;;;;;;;4.20;2.40;;;;;;;;;;4993472;28;20264;-62
2024/02/09 12:41:24;;;;;;;3.47;2.73;;;;;;;;;;4992763;28;20297;-61
2024/02/09 12:43:56;;;;;;;2.40;2.30;;;;;;;;;;4991644;28;20217;-61
2024/02/09 12:46:25;;;;;;;2.53;2.00;;;;;;;;;;4992777;28;20225;-62
2024/02/09 12:48:55;;;;;;;1.87;1.50;;;;;;;;;;4992388;28;20241;-61
2024/02/09 12:51:22;;;;;;;5.90;2.67;;;;;;;;;;4992930;28;20221;-61
2024/02/09 12:53:50;;;;;;;2.80;2.60;;;;;;;;;;4992321;28;20680;-62
2024/02/09 12:56:17;;;;;;;2.03;1.83;;;;;;;;;;5011886;28;20273;-62
2024/02/09 12:58:44;;;;;;;2.30;2.20;;;;;;;;;;5012160;28;20233;-62
2024/02/09 13:01:12;;;;;;;2.37;2.17;;;;;;;;;;5011860;28;20256;-61
2024/02/09 13:03:40;;;;;;;1.40;1.37;;;;;;;;;;5010967;28;20691;-62
2024/02/09 13:06:08;;;;;;;1.80;1.33;;;;;;;;;;5012040;28;20624;-62
2024/02/09 13:08:36;;;;;;;1.87;1.77;;;;;;;;;;5011943;28;20199;-62
2024/02/09 13:11:06;;;;;;;2.80;1.83;;;;;;;;;;5003155;28;20210;-62
2024/02/09 13:13:35;;;;;;;3.13;2.33;;;;;;;;;;5003893;28;20230;-62
2024/02/09 13:16:02;;;;;;;2.03;1.93;;;;;;;;;;5010845;28;20253;-62
2024/02/09 13:18:31;;;;;;;4.43;2.60;;;;;;;;;;5011698;28;20348;-61
2024/02/09 13:20:59;;;;;;;2.47;2.23;;;;;;;;;;5011823;28;20201;-62
2024/02/09 13:23:28;;;;;;;4.73;2.70;;;;;;;;;;5011049;28;20229;-62
2024/02/09 13:25:57;;;;;;;2.67;2.40;;;;;;;;;;5011878;28;20257;-62
2024/02/09 13:28:24;;;;;;;6.13;2.80;;;;;;;;;;4999161;28;20306;-62
2024/02/09 13:30:51;;;;;;;4.27;3.27;;;;;;;;;;4995763;28;20209;-62
2024/02/09 13:33:19;;;;;;;3.67;3.30;;;;;;;;;;4995236;28;20237;-62
2024/02/09 13:35:46;;;;;;;6.20;3.60;;;;;;;;;;4995707;28;20314;-62
2024/02/09 13:38:14;;;;;;;4.67;4.27;;;;;;;;;;4996012;28;20247;-62
2024/02/09 13:40:42;;;;;;;3.90;3.33;;;;;;;;;;4995900;28;20728;-62
2024/02/09 13:43:10;;;;;;;5.00;4.57;;;;;;;;;;4995142;28;20217;-62
2024/02/09 13:45:39;;;;;;;5.63;4.20;;;;;;;;;;4997020;28;20579;-62
2024/02/09 13:48:08;;;;;;;6.33;5.30;;;;;;;;;;4996774;28;20306;-62
2024/02/09 13:50:35;;;;;;;6.33;4.57;;;;;;;;;;4996144;28;20213;-62
2024/02/09 13:53:03;;;;;;;5.17;4.77;;;;;;;;;;4995271;28;20288;-62
2024/02/09 13:55:32;;;;;;;5.37;4.87;;;;;;;;;;4995501;28;20703;-62
2024/02/09 13:57:59;;;;;;;8.60;4.87;;;;;;;;;;4995961;28;20610;-62
2024/02/09 14:00:27;;;;;;;8.68;5.60;;;;;;;;;;4994498;28;20436;-60
2024/02/09 14:02:54;;;;;;;5.40;4.90;;;;;;;;;;4995050;28;20204;-58
2024/02/09 14:05:21;;;;;;;13.80;7.43;;;;;;;;;;4998962;28;20221;-61
2024/02/09 14:07:50;;;;;;;10.00;7.60;;;;;;;;;;4993859;28;20297;-61
2024/02/09 14:10:17;;;;;;;8.43;5.93;;;;;;;;;;4994831;28;20229;-62
2024/02/09 14:12:46;;;;;;;8.07;5.93;;;;;;;;;;4992317;28;20242;-62
2024/02/09 14:15:13;;;;;;;9.47;5.60;;;;;;;;;;4994739;28;20230;-63
2024/02/09 14:17:40;;;;;;;5.67;5.23;;;;;;;;;;4995954;28;20201;-61
2024/02/09 14:20:08;;;;;;;7.93;6.33;;;;;;;;;;4994982;28;20301;-62
2024/02/09 14:22:35;;;;;;;6.77;6.17;;;;;;;;;;4994180;28;20639;-65
2024/02/09 14:25:03;;;;;;;9.70;5.63;;;;;;;;;;4995270;28;20248;-61
2024/02/09 14:27:30;;;;;;;7.90;4.97;;;;;;;;;;4994745;28;20269;-62
2024/02/09 14:29:59;;;;;;;6.07;5.33;;;;;;;;;;4995110;28;20213;-63
2024/02/09 14:32:28;;;;;;;5.20;4.80;;;;;;;;;;4999126;28;20225;-62
2024/02/09 14:34:55;;;;;;;5.73;5.10;;;;;;;;;;5014068;28;20268;-61
2024/02/09 14:37:27;;;;;;;10.17;7.93;;;;;;;;;;5014341;28;20206;-61
2024/02/09 14:39:54;;;;;;;14.10;8.73;;;;;;;;;;5013828;28;20658;-62
2024/02/09 14:42:24;;;;;;;9.47;7.20;;;;;;;;;;5013063;28;20200;-62
2024/02/09 14:44:51;;;;;;;8.70;7.13;;;;;;;;;;5012922;28;20202;-62
2024/02/09 14:47:25;;;;;;;11.17;6.07;;;;;;;;;;5014076;28;20215;-62
2024/02/09 14:49:52;;;;;;;6.97;6.33;;;;;;;;;;5008918;28;20203;-62
2024/02/09 14:52:20;;;;;;;9.37;7.27;;;;;;;;;;5013031;28;20208;-64
2024/02/09 14:54:49;;;;;;;9.20;7.83;;;;;;;;;;5013659;28;20637;-63
2024/02/09 14:57:17;;;;;;;11.70;7.47;;;;;;;;;;5014056;28;20232;-62
2024/02/09 14:59:46;;;;;;;6.43;5.40;;;;;;;;;;5013987;28;20210;-63
2024/02/09 15:02:13;;;;;;;7.47;6.10;;;;;;;;;;5013791;28;20210;-63
2024/02/09 15:04:42;;;;;;;7.87;5.90;;;;;;;;;;5012778;28;20213;-63
2024/02/09 15:07:09;;;;;;;6.40;5.80;;;;;;;;;;4996855;28;20303;-59
2024/02/09 15:09:37;;;;;;;6.90;6.20;;;;;;;;;;5003706;28;20195;-62
2024/02/09 15:12:05;;;;;;;7.00;6.37;;;;;;;;;;5013581;28;20201;-62
2024/02/09 15:14:32;;;;;;;6.87;6.27;;;;;;;;;;5012914;28;20252;-63
2024/02/09 15:17:00;;;;;;;8.53;6.37;;;;;;;;;;5013288;28;20229;-62
2024/02/09 15:19:27;;;;;;;5.77;5.27;;;;;;;;;;5013436;28;20260;-60
2024/02/09 15:21:55;;;;;;;8.33;7.53;;;;;;;;;;5012823;28;20261;-59
2024/02/09 15:24:23;;;;;;;10.33;9.47;;;;;;;;;;5011492;28;20630;-59
2024/02/09 15:26:50;;;;;;;6.67;5.80;;;;;;;;;;5013338;28;20313;-57
2024/02/09 15:29:19;;;;;;;6.30;5.73;;;;;;;;;;5013231;28;20681;-62
2024/02/09 15:31:48;;;;;;;7.13;6.53;;;;;;;;;;5013197;28;20507;-62
2024/02/09 15:34:15;;;;;;;8.27;7.00;;;;;;;;;;5012641;28;20206;-65
2024/02/09 15:36:45;;;;;;;9.93;7.03;;;;;;;;;;5013028;28;20759;-66
2024/02/09 15:39:14;;;;;;;7.63;7.03;;;;;;;;;;5013141;28;20293;-65
2024/02/09 15:41:43;;;;;;;11.33;7.23;;;;;;;;;;5013570;28;20268;-66
2024/02/09 15:44:10;;;;;;;8.60;7.10;;;;;;;;;;5012125;28;20252;-65
2024/02/09 15:46:37;;;;;;;9.67;6.47;;;;;;;;;;5012903;28;20225;-62
2024/02/09 15:49:04;;;;;;;9.90;6.80;;;;;;;;;;5013086;28;20256;-63
2024/02/09 15:51:32;;;;;;;8.00;7.17;;;;;;;;;;5012517;28;20222;-64
2024/02/09 15:53:59;;;;;;;7.73;6.77;;;;;;;;;;5012134;28;20744;-63
2024/02/09 15:56:31;;;;;;;9.20;7.33;;;;;;;;;;4997885;28;20292;-61
2024/02/09 15:58:59;;;;;;;7.87;6.57;;;;;;;;;;4973651;28;20238;-59